createdAt,value
2023-02-03T00:02:39.286Z,66.13
2023-02-03T00:05:44.247Z,66.18
2023-02-03T00:08:49.336Z,66.33
2023-02-03T00:11:53.931Z,66.47
2023-02-03T00:14:58.525Z,66.62
2023-02-03T00:18:03.078Z,66.71
2023-02-03T00:21:08.116Z,66.95
2023-02-03T00:24:12.675Z,66.78
2023-02-03T00:27:17.334Z,67.02
2023-02-03T00:30:21.975Z,66.94
2023-02-03T00:33:26.605Z,66.85
2023-02-03T00:36:31.235Z,66.63
2023-02-03T00:39:37.360Z,66.72
2023-02-03T00:42:42.003Z,66.53
2023-02-03T00:45:46.680Z,66.57
2023-02-03T00:48:51.285Z,66.47
2023-02-03T00:51:55.990Z,66.37
2023-02-03T00:55:00.615Z,66.09
2023-02-03T00:58:05.348Z,66.03
2023-02-03T01:01:10.085Z,66.26
2023-02-03T01:04:14.626Z,66.37
2023-02-03T01:07:19.156Z,66.13
2023-02-03T01:10:23.883Z,65.91
2023-02-03T01:13:29.165Z,65.64
2023-02-03T01:16:36.456Z,65.86
2023-02-03T01:19:41.060Z,65.72
2023-02-03T01:22:45.663Z,65.59
2023-02-03T01:25:50.276Z,65.62
2023-02-03T01:28:55.894Z,65.62
2023-02-03T01:32:00.662Z,65.67
2023-02-03T01:35:05.387Z,65.36
2023-02-03T01:38:10.018Z,65.24
2023-02-03T01:41:15.929Z,65.33
2023-02-03T01:44:37.806Z,65.39
2023-02-03T01:47:45.225Z,65.23
2023-02-03T01:50:49.865Z,65.18
2023-02-03T01:53:55.484Z,65.12
2023-02-03T01:57:01.705Z,64.72
2023-02-03T02:00:09.718Z,64.54
2023-02-03T02:03:14.729Z,64.35
2023-02-03T02:06:19.234Z,64.35
2023-02-03T02:09:24.283Z,64.10
2023-02-03T02:12:29.025Z,63.91
2023-02-03T02:15:36.895Z,63.71
2023-02-03T02:18:49.114Z,63.63
2023-02-03T02:21:56.521Z,63.45
2023-02-03T02:25:26.749Z,63.62
2023-02-03T02:28:47.722Z,63.57
2023-02-03T02:32:06.545Z,63.58
2023-02-03T02:35:15.836Z,63.53
2023-02-03T02:38:25.397Z,63.48
2023-02-03T02:41:31.332Z,63.61
2023-02-03T02:44:37.929Z,63.59
2023-02-03T02:47:42.622Z,63.77
2023-02-03T02:50:48.187Z,63.56
2023-02-03T02:53:54.600Z,63.37
2023-02-03T02:57:00.948Z,63.33
2023-02-03T03:00:05.884Z,63.00
2023-02-03T03:03:14.857Z,62.83
2023-02-03T03:06:21.185Z,62.76
2023-02-03T03:09:26.733Z,62.37
2023-02-03T03:12:32.581Z,62.20
2023-02-03T03:15:38.078Z,62.15
2023-02-03T03:18:45.325Z,61.78
2023-02-03T03:21:53.685Z,61.79
2023-02-03T03:25:01.644Z,61.90
2023-02-03T03:28:09.703Z,61.40
2023-02-03T03:31:14.471Z,61.59
2023-02-03T03:34:19.489Z,61.52
2023-02-03T03:37:31.080Z,61.28
2023-02-03T03:40:39.633Z,60.91
2023-02-03T03:43:46.376Z,60.69
2023-02-03T03:46:53.453Z,60.17
2023-02-03T03:50:00.458Z,59.99
2023-02-03T03:53:06.702Z,59.89
2023-02-03T03:56:14.221Z,59.95
2023-02-03T03:59:20.222Z,59.86
2023-02-03T04:02:25.624Z,59.71
2023-02-03T04:05:30.145Z,59.53
2023-02-03T04:08:34.816Z,59.46
2023-02-03T04:11:57.106Z,57.90
2023-02-03T04:15:01.731Z,58.04
2023-02-03T04:18:06.819Z,59.16
2023-02-03T04:21:11.498Z,60.28
2023-02-03T04:24:16.059Z,60.68
2023-02-03T04:27:20.565Z,60.93
2023-02-03T04:30:25.354Z,61.06
2023-02-03T04:33:30.123Z,61.61
2023-02-03T04:36:34.739Z,63.20
2023-02-03T04:39:39.403Z,67.17
2023-02-03T04:42:43.924Z,68.20
2023-02-03T04:45:48.565Z,67.24
2023-02-03T04:48:53.252Z,66.13
2023-02-03T04:51:57.816Z,65.21
2023-02-03T04:55:04.216Z,64.31
2023-02-03T04:58:08.797Z,63.64
2023-02-03T05:01:13.487Z,62.69
2023-02-03T05:04:18.344Z,62.01
2023-02-03T05:07:22.899Z,61.66
2023-02-03T05:10:27.600Z,61.42
2023-02-03T05:13:32.317Z,61.13
2023-02-03T05:16:36.924Z,60.74
2023-02-03T05:19:41.500Z,60.39
2023-02-03T05:22:46.037Z,60.20
2023-02-03T05:25:50.552Z,59.73
2023-02-03T05:28:56.672Z,59.42
2023-02-03T05:32:02.393Z,57.53
2023-02-03T05:35:08.913Z,57.62
2023-02-03T05:38:13.672Z,58.38
2023-02-03T05:41:35.573Z,59.37
2023-02-03T05:44:40.109Z,59.78
2023-02-03T05:47:44.726Z,59.87
2023-02-03T05:50:49.354Z,60.23
2023-02-03T05:53:54.418Z,60.54
2023-02-03T05:56:58.948Z,60.99
2023-02-03T06:00:03.764Z,60.92
2023-02-03T06:03:08.639Z,61.16
2023-02-03T06:06:13.312Z,61.20
2023-02-03T06:09:17.861Z,61.78
2023-02-03T06:12:22.393Z,61.97
2023-02-03T06:15:26.994Z,62.70
2023-02-03T06:18:31.734Z,66.36
2023-02-03T06:21:36.283Z,68.09
2023-02-03T06:24:40.797Z,67.49
2023-02-03T06:27:45.377Z,66.69
2023-02-03T06:30:53.311Z,65.74
2023-02-03T06:33:59.647Z,64.87
2023-02-03T06:37:04.242Z,64.11
2023-02-03T06:40:09.828Z,63.30
2023-02-03T06:43:14.400Z,62.54
2023-02-03T06:46:18.938Z,62.18
2023-02-03T06:49:23.469Z,61.81
2023-02-03T06:52:27.959Z,61.43
2023-02-03T06:55:32.527Z,61.09
2023-02-03T06:58:37.105Z,60.88
2023-02-03T07:01:41.729Z,60.03
2023-02-03T07:04:46.391Z,59.59
2023-02-03T07:07:50.899Z,59.76
2023-02-03T07:10:56.688Z,59.35
2023-02-03T07:14:01.304Z,57.57
2023-02-03T07:17:05.825Z,57.76
2023-02-03T07:20:11.181Z,58.11
2023-02-03T07:23:15.676Z,58.35
2023-02-03T07:26:23.046Z,58.44
2023-02-03T07:29:27.593Z,58.92
2023-02-03T07:32:32.937Z,59.12
2023-02-03T07:35:38.380Z,59.11
2023-02-03T07:38:42.999Z,59.21
2023-02-03T07:41:47.739Z,59.36
2023-02-03T07:44:52.269Z,60.21
2023-02-03T07:47:56.803Z,60.97
2023-02-03T07:51:01.420Z,63.24
2023-02-03T07:54:06.273Z,64.63
2023-02-03T07:57:10.770Z,63.32
2023-02-03T08:00:17.709Z,61.72
2023-02-03T08:03:22.276Z,61.64
2023-02-03T08:06:26.917Z,60.87
2023-02-03T08:09:31.452Z,59.94
2023-02-03T08:12:35.966Z,58.11
2023-02-03T08:15:40.736Z,55.89
2023-02-03T08:18:45.343Z,56.14
2023-02-03T08:21:49.844Z,55.98
2023-02-03T08:24:54.391Z,56.99
2023-02-03T08:27:59.013Z,56.79
2023-02-03T08:31:03.560Z,60.69
2023-02-03T08:34:08.169Z,59.39
2023-02-03T08:37:13.588Z,61.80
2023-02-03T08:40:18.526Z,62.87
2023-02-03T08:43:23.087Z,63.14
2023-02-03T08:46:27.606Z,61.55
2023-02-03T08:49:32.099Z,59.87
2023-02-03T08:52:36.832Z,57.38
2023-02-03T08:55:41.547Z,56.80
2023-02-03T08:58:46.044Z,57.76
2023-02-03T09:01:50.592Z,57.95
2023-02-03T09:04:55.199Z,59.93
2023-02-03T09:08:00.384Z,59.23
2023-02-03T09:11:09.243Z,58.15
2023-02-03T09:14:13.846Z,59.80
2023-02-03T09:17:18.750Z,62.29
2023-02-03T09:20:24.579Z,64.03
2023-02-03T09:23:29.147Z,63.44
2023-02-03T09:26:33.457Z,62.07
2023-02-03T09:29:37.923Z,61.19
2023-02-03T09:32:42.242Z,57.28
2023-02-03T09:35:54.155Z,56.16
2023-02-03T09:38:59.385Z,56.95
2023-02-03T09:42:10.922Z,58.00
2023-02-03T09:45:21.561Z,58.61
2023-02-03T09:48:27.491Z,61.19
2023-02-03T09:51:36.203Z,62.53
2023-02-03T09:54:43.855Z,61.24
2023-02-03T09:57:51.593Z,59.63
2023-02-03T10:00:57.648Z,57.10
2023-02-03T10:04:05.719Z,56.17
2023-02-03T10:07:13.268Z,56.41
2023-02-03T10:10:19.763Z,55.74
2023-02-03T10:13:30.827Z,57.74
2023-02-03T10:16:43.379Z,59.28
2023-02-03T10:19:49.308Z,63.87
2023-02-03T10:22:55.469Z,61.80
2023-02-03T10:26:00.938Z,58.90
2023-02-03T10:29:09.217Z,55.69
2023-02-03T10:32:14.227Z,54.80
2023-02-03T10:35:18.765Z,55.14
2023-02-03T10:38:30.509Z,58.38
2023-02-03T10:41:35.312Z,59.50
2023-02-03T10:44:40.778Z,60.41
2023-02-03T10:47:47.312Z,61.01
2023-02-03T10:50:52.863Z,64.49
2023-02-03T10:53:57.429Z,64.18
2023-02-03T10:57:06.124Z,63.48
2023-02-03T11:00:22.764Z,62.50
2023-02-03T11:03:28.158Z,62.02
2023-02-03T11:06:33.152Z,59.97
2023-02-03T11:09:38.814Z,57.14
2023-02-03T11:12:43.404Z,56.84
2023-02-03T11:15:52.784Z,56.54
2023-02-03T11:18:59.215Z,56.90
2023-02-03T11:22:03.857Z,56.95
2023-02-03T11:25:18.689Z,57.89
2023-02-03T11:28:23.407Z,58.30
2023-02-03T11:31:28.945Z,58.55
2023-02-03T11:34:35.671Z,59.04
2023-02-03T11:37:41.492Z,58.98
2023-02-03T11:40:46.029Z,62.05
2023-02-03T11:43:50.650Z,64.71
2023-02-03T11:46:56.813Z,67.08
2023-02-03T11:50:17.480Z,67.38
2023-02-03T11:53:28.514Z,67.18
2023-02-03T11:56:40.041Z,66.90
2023-02-03T11:59:53.265Z,66.61
2023-02-03T12:03:27.894Z,66.26
2023-02-03T12:06:47.529Z,66.23
2023-02-03T12:09:55.784Z,65.82
2023-02-03T12:13:03.454Z,65.51
2023-02-03T12:16:15.610Z,65.16
2023-02-03T12:19:25.727Z,64.79
2023-02-03T12:22:34.924Z,64.88
2023-02-03T12:25:46.110Z,65.09
2023-02-03T12:28:57.323Z,65.31
2023-02-03T12:32:04.602Z,65.40
2023-02-03T12:35:14.882Z,65.37
2023-02-03T12:38:23.093Z,65.16
2023-02-03T12:41:29.779Z,64.52
2023-02-03T12:44:36.964Z,64.19
2023-02-03T12:47:43.611Z,64.34
2023-02-03T12:50:52.163Z,64.27
2023-02-03T12:54:00.343Z,64.32
2023-02-03T12:57:12.094Z,64.46
2023-02-03T13:00:27.887Z,64.76
2023-02-03T13:03:37.091Z,65.00
2023-02-03T13:06:44.147Z,64.66
2023-02-03T13:09:50.279Z,64.97
2023-02-03T13:12:57.484Z,65.73
2023-02-03T13:16:03.762Z,66.14
2023-02-03T13:19:12.467Z,66.48
2023-02-03T13:22:17.823Z,66.59
2023-02-03T13:25:25.423Z,66.78
2023-02-03T13:28:38.032Z,67.40
2023-02-03T13:31:50.380Z,67.49
2023-02-03T13:35:03.807Z,67.99
2023-02-03T13:38:24.671Z,67.53
2023-02-03T13:41:33.394Z,67.31
2023-02-03T13:44:39.277Z,66.92
2023-02-03T13:47:47.397Z,67.49
2023-02-03T13:50:52.412Z,67.46
2023-02-03T13:54:00.954Z,67.67
2023-02-03T13:57:07.156Z,67.73
2023-02-03T14:00:35.061Z,67.59
2023-02-03T14:03:46.293Z,67.81
2023-02-03T14:07:03.428Z,68.32
2023-02-03T14:10:22.050Z,68.46
2023-02-03T14:13:26.569Z,68.25
2023-02-03T14:16:35.543Z,67.79
2023-02-03T14:19:58.610Z,68.52
2023-02-03T14:23:10.341Z,68.70
2023-02-03T14:26:23.665Z,68.74
2023-02-03T14:29:29.570Z,68.54
2023-02-03T14:32:47.459Z,68.53
2023-02-03T14:35:52.055Z,68.46
2023-02-03T14:38:57.347Z,68.63
2023-02-03T14:42:06.554Z,68.56
2023-02-03T14:45:18.032Z,68.95
2023-02-03T14:48:33.123Z,68.70
2023-02-03T14:51:52.793Z,69.25
2023-02-03T14:55:06.108Z,69.18
2023-02-03T14:58:24.917Z,69.48
2023-02-03T15:01:49.819Z,69.53
2023-02-03T15:04:54.892Z,69.64
2023-02-03T15:08:01.416Z,69.99
2023-02-03T15:11:22.831Z,69.67
2023-02-03T15:14:28.493Z,69.91
2023-02-03T15:17:33.106Z,70.18
2023-02-03T15:20:41.544Z,69.93
2023-02-03T15:23:48.357Z,69.95
2023-02-03T15:26:53.604Z,70.22
2023-02-03T15:29:59.108Z,70.29
2023-02-03T15:33:07.624Z,70.14
2023-02-03T15:36:16.929Z,70.55
2023-02-03T15:39:25.376Z,70.49
2023-02-03T15:42:32.347Z,70.11
2023-02-03T15:45:41.894Z,70.29
2023-02-03T15:48:48.775Z,70.15
2023-02-03T15:51:55.636Z,70.19
2023-02-03T15:55:05.356Z,70.19
2023-02-03T15:58:16.172Z,70.07
2023-02-03T16:01:23.304Z,70.22
2023-02-03T16:04:27.895Z,70.12
2023-02-03T16:07:32.624Z,70.81
2023-02-03T16:10:37.109Z,71.27
2023-02-03T16:13:45.630Z,71.27
2023-02-03T16:17:04.278Z,71.40
2023-02-03T16:20:28.562Z,71.58
2023-02-03T16:23:33.367Z,71.59
2023-02-03T16:26:38.679Z,71.58
2023-02-03T16:30:00.717Z,71.68
2023-02-03T16:33:29.107Z,71.77
2023-02-03T16:36:51.135Z,72.02
2023-02-03T16:40:13.078Z,72.26
2023-02-03T16:43:35.514Z,71.75
2023-02-03T16:46:57.449Z,72.79
2023-02-03T16:50:32.745Z,73.13
2023-02-03T16:53:41.606Z,73.19
2023-02-03T16:56:46.140Z,73.13
2023-02-03T16:59:50.683Z,72.93
2023-02-03T17:02:56.546Z,72.76
2023-02-03T17:06:05.161Z,72.52
2023-02-03T17:09:09.663Z,72.45
2023-02-03T17:12:14.202Z,72.71
2023-02-03T17:15:18.857Z,72.58
2023-02-03T17:18:23.386Z,72.70
2023-02-03T17:21:28.935Z,73.00
2023-02-03T17:24:33.399Z,72.99
2023-02-03T17:27:38.088Z,72.90
2023-02-03T17:30:42.750Z,73.07
2023-02-03T17:33:47.784Z,72.79
2023-02-03T17:36:52.396Z,72.80
2023-02-03T17:53:27.801Z,72.02
2023-02-03T17:56:32.457Z,72.23
2023-02-03T17:59:37.871Z,72.00
2023-02-03T18:02:43.287Z,71.86
2023-02-03T18:05:52.491Z,72.03
2023-02-03T18:09:01.340Z,72.07
2023-02-03T18:12:06.274Z,71.83
2023-02-03T18:15:11.301Z,71.99
2023-02-03T18:18:15.853Z,72.07
2023-02-03T18:21:21.468Z,72.31
2023-02-03T18:24:28.786Z,72.33
2023-02-03T18:27:33.279Z,72.39
2023-02-03T18:30:37.952Z,72.22
2023-02-03T18:33:43.035Z,72.01
2023-02-03T18:36:47.680Z,71.77
2023-02-03T18:39:52.429Z,72.19
2023-02-03T18:42:57.424Z,71.93
2023-02-03T18:46:06.609Z,71.93
2023-02-03T18:49:12.403Z,71.86
2023-02-03T18:52:16.896Z,71.79
2023-02-03T18:55:21.788Z,71.73
2023-02-03T18:58:26.354Z,71.92
2023-02-03T19:01:32.017Z,72.07
2023-02-03T19:04:36.622Z,72.21
2023-02-03T19:07:41.329Z,72.38
2023-02-03T19:10:45.911Z,72.40
2023-02-03T19:13:50.736Z,72.35
2023-02-03T19:16:55.238Z,72.26
2023-02-03T19:19:59.758Z,72.12
2023-02-03T19:23:08.604Z,71.92
2023-02-03T19:26:13.370Z,71.80
2023-02-03T19:29:17.957Z,72.04
2023-02-03T19:32:22.633Z,72.00
2023-02-03T19:35:27.206Z,71.90
2023-02-03T19:38:31.724Z,71.71
2023-02-03T19:41:36.913Z,71.72
2023-02-03T19:44:41.397Z,71.67
2023-02-03T19:47:45.839Z,71.76
2023-02-03T19:50:50.543Z,71.70
2023-02-03T19:53:55.060Z,71.66
2023-02-03T19:56:59.714Z,71.64
2023-02-03T20:00:04.352Z,71.70
2023-02-03T20:03:08.927Z,71.44
2023-02-03T20:06:13.804Z,71.64
2023-02-03T20:09:18.437Z,71.58
2023-02-03T20:12:23.012Z,71.62
2023-02-03T20:15:27.611Z,71.51
2023-02-03T20:18:32.176Z,71.45
2023-02-03T20:21:36.737Z,71.47
2023-02-03T20:24:41.437Z,71.47
2023-02-03T20:27:46.047Z,71.42
2023-02-03T20:30:53.209Z,71.16
2023-02-03T20:33:57.810Z,71.36
2023-02-03T20:37:02.294Z,71.32
2023-02-03T20:40:07.988Z,71.35
2023-02-03T20:43:16.811Z,71.42
2023-02-03T20:46:21.321Z,71.37
2023-02-03T20:49:26.117Z,71.24
2023-02-03T20:52:30.730Z,70.99
2023-02-03T20:55:36.727Z,70.70
2023-02-03T20:58:41.708Z,71.05
2023-02-03T21:01:46.476Z,70.93
2023-02-03T21:05:00.786Z,71.13
2023-02-03T21:08:10.962Z,71.05
2023-02-03T21:11:16.615Z,70.98
2023-02-03T21:14:22.853Z,71.43
2023-02-03T21:17:28.398Z,71.37
2023-02-03T21:20:33.352Z,71.23
2023-02-03T21:23:40.215Z,71.25
2023-02-03T21:26:44.750Z,70.86
2023-02-03T21:29:49.275Z,70.77
2023-02-03T21:32:53.785Z,70.59
2023-02-03T21:35:58.337Z,70.78
2023-02-03T21:39:03.252Z,70.94
2023-02-03T21:42:41.371Z,70.99
2023-02-03T21:45:46.465Z,70.65
2023-02-03T21:48:52.324Z,71.08
2023-02-03T21:51:56.803Z,71.39
2023-02-03T21:55:01.419Z,71.23
2023-02-03T21:58:20.182Z,71.15
2023-02-03T22:01:26.229Z,71.21
2023-02-03T22:04:31.081Z,71.18
2023-02-03T22:07:35.925Z,71.25
2023-02-03T22:10:40.459Z,71.16
2023-02-03T22:13:44.929Z,71.21
2023-02-03T22:16:49.576Z,71.18
2023-02-03T22:19:54.125Z,71.41
2023-02-03T22:22:58.627Z,71.35
2023-02-03T22:26:03.255Z,71.30
2023-02-03T22:29:07.757Z,71.23
2023-02-03T22:32:12.329Z,71.26
2023-02-03T22:35:16.801Z,71.24
2023-02-03T22:38:21.701Z,71.23
2023-02-03T22:41:26.294Z,71.10
2023-02-03T22:44:30.826Z,71.07
2023-02-03T22:47:35.328Z,70.97
2023-02-03T22:50:40.130Z,70.91
2023-02-03T22:53:44.764Z,70.95
2023-02-03T22:56:49.242Z,70.85
2023-02-03T22:59:53.760Z,70.74
2023-02-03T23:02:59.144Z,70.78
2023-02-03T23:06:03.759Z,70.79
2023-02-03T23:09:08.346Z,70.78
2023-02-03T23:12:12.855Z,70.73
2023-02-03T23:15:18.173Z,70.64
2023-02-03T23:18:22.757Z,70.75
2023-02-03T23:21:27.234Z,70.61
2023-02-03T23:24:31.688Z,70.52
2023-02-03T23:27:36.208Z,70.54
2023-02-03T23:30:40.776Z,70.59
2023-02-03T23:34:05.464Z,70.57
2023-02-03T23:37:09.980Z,70.50
2023-02-03T23:40:14.786Z,70.51
2023-02-03T23:43:19.357Z,70.44
2023-02-03T23:46:23.868Z,70.63
2023-02-03T23:49:28.448Z,70.72
2023-02-03T23:52:35.826Z,70.91
2023-02-03T23:55:40.316Z,71.01
2023-02-03T23:58:44.911Z,71.05
